Time;durP1;ratioP1;P1;durP2;ratioP2;P2;SDS_P1;SDS_P2;PMS_P1;PMS_P2;Temp;Humidity;BMP_temperature;BMP_pressure;BME280_temperature;BME280_humidity;BME280_pressure;Samples;Min_cycle;Max_cycle;Signal;HPM_P1;HPM_P2
2020/12/05 00:02:25;;;;;;;35.28;20.83;;;;;;;1.06;75.14;94094.28;5034841;28;20045;-77
2020/12/05 00:04:52;;;;;;;34.20;21.05;;;;;;;1.08;75.02;94084.63;5034799;28;20536;-77
2020/12/05 00:07:19;;;;;;;37.90;20.83;;;;;;;1.09;74.57;94087.97;5034485;28;20076;-76
2020/12/05 00:09:46;;;;;;;33.40;19.05;;;;;;;1.06;74.62;94099.41;5034181;28;20054;-77
2020/12/05 00:12:12;;;;;;;29.00;19.05;;;;;;;1.05;74.42;94105.53;5034201;28;20045;-76
2020/12/05 00:14:53;;;;;;;33.72;19.98;;;;;;;1.01;74.28;94119.72;5034226;28;20057;-76
2020/12/05 00:17:21;;;;;;;36.85;21.30;;;;;;;0.99;74.87;94142.22;5034274;28;20057;-77
2020/12/05 00:19:47;;;;;;;35.75;21.60;;;;;;;0.97;74.81;94139.03;5034286;28;20419;-77
2020/12/05 00:22:16;;;;;;;37.83;23.15;;;;;;;0.94;74.70;94140.19;5034211;28;20080;-78
2020/12/05 00:24:43;;;;;;;37.03;23.55;;;;;;;0.94;74.95;94129.94;5034035;28;20055;-77
2020/12/05 00:27:09;;;;;;;37.58;22.10;;;;;;;0.94;74.90;94140.19;5034213;28;20471;-76
2020/12/05 00:29:36;;;;;;;38.75;22.48;;;;;;;0.94;75.12;94144.50;5033470;28;20096;-77
2020/12/05 00:32:06;;;;;;;36.90;21.42;;;;;;;0.93;74.74;94133.47;5034040;28;20046;-77
2020/12/05 00:34:33;;;;;;;39.00;22.77;;;;;;;0.91;74.73;94144.88;5033960;28;20046;-77
2020/12/05 00:37:01;;;;;;;36.15;20.55;;;;;;;0.92;74.95;94134.44;5033906;28;20057;-77
2020/12/05 00:39:27;;;;;;;36.03;20.55;;;;;;;0.92;74.90;94136.19;5033546;28;20053;-76
2020/12/05 00:41:54;;;;;;;36.78;22.42;;;;;;;0.90;74.41;94136.41;5033548;28;20049;-76
2020/12/05 00:44:20;;;;;;;34.97;20.23;;;;;;;0.89;74.68;94126.31;5034018;28;20046;-77
2020/12/05 00:46:47;;;;;;;33.45;20.08;;;;;;;0.87;74.20;94112.88;5034183;28;20056;-77
2020/12/05 00:49:13;;;;;;;38.13;20.67;;;;;;;0.81;74.04;94104.13;5033420;28;20496;-76
2020/12/05 00:51:41;;;;;;;33.47;19.65;;;;;;;0.76;74.19;94093.59;5034060;28;20056;-77
2020/12/05 00:54:07;;;;;;;34.10;20.15;;;;;;;0.71;74.44;94104.41;5033890;28;20053;-77
2020/12/05 00:56:34;;;;;;;34.10;19.48;;;;;;;0.67;73.97;94112.66;5034026;28;20059;-76
2020/12/05 00:59:00;;;;;;;36.53;19.13;;;;;;;0.63;74.26;94104.53;5033486;28;20057;-76
2020/12/05 01:01:27;;;;;;;36.72;19.65;;;;;;;0.59;74.01;94105.88;5033854;28;20053;-76
2020/12/05 01:03:53;;;;;;;32.92;18.80;;;;;;;0.55;74.20;94100.31;5033952;28;20068;-77
2020/12/05 01:06:21;;;;;;;30.55;18.20;;;;;;;0.54;74.38;94103.06;5040667;28;20041;-75
2020/12/05 01:08:48;;;;;;;33.33;19.55;;;;;;;0.54;74.03;94082.53;5053750;28;20054;-76
2020/12/05 01:11:16;;;;;;;27.45;18.17;;;;;;;0.53;74.14;94098.91;5054315;28;20051;-77
2020/12/05 01:13:42;;;;;;;24.52;16.13;;;;;;;0.51;73.73;94106.78;5054202;28;20052;-75
2020/12/05 01:16:12;;;;;;;27.98;17.92;;;;;;;0.48;73.25;94134.56;5052218;28;20041;-75
2020/12/05 01:18:40;;;;;;;30.25;16.85;;;;;;;0.45;73.31;94140.06;5045706;28;20045;-76
2020/12/05 01:21:10;;;;;;;27.30;18.10;;;;;;;0.43;73.88;94132.53;5052061;28;20045;-76
2020/12/05 01:23:37;;;;;;;27.33;16.33;;;;;;;0.39;73.61;94144.94;5053763;28;20052;-78
2020/12/05 01:26:05;;;;;;;27.58;16.48;;;;;;;0.34;73.54;94169.50;5051526;28;20046;-77
2020/12/05 01:28:32;;;;;;;30.10;18.52;;;;;;;0.30;73.52;94191.34;5053422;28;20050;-77
2020/12/05 01:30:58;;;;;;;30.58;18.83;;;;;;;0.28;74.17;94181.25;5051900;28;20051;-77
2020/12/05 01:33:25;;;;;;;29.35;18.33;;;;;;;0.28;74.36;94190.72;5052374;28;20053;-76
2020/12/05 01:35:52;;;;;;;29.48;17.67;;;;;;;0.29;74.23;94203.38;5052673;28;20051;-76
2020/12/05 01:38:18;;;;;;;34.00;20.60;;;;;;;0.29;73.83;94208.50;5056760;28;20057;-77
2020/12/05 01:40:52;;;;;;;32.72;19.35;;;;;;;0.29;74.69;94187.22;5055496;28;20252;-77
2020/12/05 01:43:20;;;;;;;31.35;19.27;;;;;;;0.31;74.72;94186.06;5055997;28;20045;-77
2020/12/05 01:45:48;;;;;;;37.92;20.40;;;;;;;0.32;74.30;94177.38;5055466;28;20053;-76
2020/12/05 01:48:16;;;;;;;31.20;18.33;;;;;;;0.34;74.42;94190.81;5055185;28;20462;-76
2020/12/05 01:50:43;;;;;;;30.63;17.83;;;;;;;0.38;74.59;94206.66;5040116;28;20050;-76
2020/12/05 01:53:09;;;;;;;29.60;17.52;;;;;;;0.36;74.55;94211.97;5036533;28;20053;-76
2020/12/05 01:55:37;;;;;;;32.58;19.70;;;;;;;0.37;74.98;94220.44;5036844;28;20050;-77
2020/12/05 01:58:03;;;;;;;26.58;17.15;;;;;;;0.37;74.58;94208.44;5036808;28;20511;-77
2020/12/05 02:00:31;;;;;;;27.42;15.73;;;;;;;0.38;74.51;94245.13;5036572;28;20057;-77
2020/12/05 02:02:57;;;;;;;28.15;17.20;;;;;;;0.35;74.04;94242.91;5036467;28;20050;-77
2020/12/05 02:05:33;;;;;;;31.45;18.13;;;;;;;0.29;74.78;94264.94;5036743;28;20057;-76
2020/12/05 02:08:09;;;;;;;32.00;18.63;;;;;;;0.29;75.16;94270.06;5036595;28;20069;-77
2020/12/05 02:10:40;;;;;;;31.88;18.20;;;;;;;0.27;74.55;94266.09;5036469;28;20050;-76
2020/12/05 02:13:11;;;;;;;30.92;18.08;;;;;;;0.23;74.84;94265.63;5036737;28;20504;-76
2020/12/05 02:15:40;;;;;;;32.80;19.00;;;;;;;0.22;75.43;94274.31;5036786;28;20077;-76
2020/12/05 02:18:08;;;;;;;38.25;20.40;;;;;;;0.22;75.57;94266.59;5036760;28;20053;-77
2020/12/05 02:20:37;;;;;;;33.75;19.40;;;;;;;0.23;75.69;94281.00;5036197;28;20057;-77
2020/12/05 02:23:11;;;;;;;37.95;22.13;;;;;;;0.24;75.81;94277.50;5036683;28;20140;-76
2020/12/05 02:25:41;;;;;;;37.53;22.75;;;;;;;0.25;75.93;94273.94;5036589;28;20053;-77
2020/12/05 02:28:08;;;;;;;34.17;21.30;;;;;;;0.27;75.98;94287.38;5036822;28;20053;-76
2020/12/05 02:30:35;;;;;;;34.15;19.95;;;;;;;0.26;75.52;94285.78;5036356;28;20056;-77
2020/12/05 02:33:03;;;;;;;36.03;20.10;;;;;;;0.24;75.69;94289.50;5036515;28;20439;-77
2020/12/05 02:35:30;;;;;;;34.47;21.90;;;;;;;0.25;76.04;94296.22;5036708;28;20064;-77
2020/12/05 02:38:05;;;;;;;36.20;21.30;;;;;;;0.25;76.30;94309.84;5036816;28;20052;-77
2020/12/05 02:40:32;;;;;;;39.25;23.13;;;;;;;0.27;76.30;94292.50;5036184;28;20049;-76
2020/12/05 02:42:59;;;;;;;34.60;19.73;;;;;;;0.28;76.15;94298.44;5047237;28;20044;-76
2020/12/05 02:45:25;;;;;;;39.33;21.67;;;;;;;0.27;75.99;94297.63;5053962;28;20046;-76
2020/12/05 02:47:52;;;;;;;34.35;20.23;;;;;;;0.26;76.07;94285.78;5055126;28;20053;-77
2020/12/05 02:50:18;;;;;;;37.20;21.70;;;;;;;0.27;75.97;94281.47;5056308;28;20056;-77
2020/12/05 02:52:45;;;;;;;34.90;19.83;;;;;;;0.24;75.88;94308.25;5036389;22;20419;-76
2020/12/05 02:55:11;;;;;;;35.65;21.15;;;;;;;0.24;75.94;94305.69;5018202;28;20054;-76
2020/12/05 02:57:39;;;;;;;35.15;20.05;;;;;;;0.25;76.77;94312.41;5018423;28;20508;-76
2020/12/05 03:00:05;;;;;;;36.03;21.65;;;;;;;0.27;76.23;94348.91;5014781;28;20057;-76
2020/12/05 03:02:32;;;;;;;35.47;20.55;;;;;;;0.27;76.23;94343.78;5014671;28;20048;-75
2020/12/05 03:04:58;;;;;;;34.28;21.55;;;;;;;0.28;75.95;94344.59;5014541;28;20053;-76
2020/12/05 03:07:25;;;;;;;35.33;21.00;;;;;;;0.29;76.38;94372.63;5014311;28;20050;-76
2020/12/05 03:09:52;;;;;;;38.10;21.80;;;;;;;0.30;76.44;94368.28;5014101;28;20479;-76
2020/12/05 03:12:18;;;;;;;34.35;21.80;;;;;;;0.31;76.09;94383.50;5014160;28;20053;-76
2020/12/05 03:14:46;;;;;;;31.40;18.58;;;;;;;0.33;76.45;94393.59;5014079;28;20109;-76
2020/12/05 03:17:12;;;;;;;35.47;20.25;;;;;;;0.35;76.35;94415.53;5014099;28;20432;-76
2020/12/05 03:19:39;;;;;;;34.22;20.10;;;;;;;0.38;76.65;94412.63;5013576;28;20455;-76
2020/12/05 03:22:05;;;;;;;36.42;20.58;;;;;;;0.39;76.54;94414.22;5013831;28;20065;-76
2020/12/05 03:24:32;;;;;;;37.85;20.42;;;;;;;0.39;76.72;94414.22;5013913;28;20061;-76
2020/12/05 03:26:59;;;;;;;39.05;21.08;;;;;;;0.40;76.55;94423.50;5013860;28;20045;-76
2020/12/05 03:29:25;;;;;;;36.00;21.63;;;;;;;0.44;77.02;94435.97;5013762;28;20061;-75
2020/12/05 03:31:55;;;;;;;36.42;20.77;;;;;;;0.46;77.02;94444.28;5013704;28;20046;-76
2020/12/05 03:34:22;;;;;;;34.47;21.05;;;;;;;0.49;76.91;94459.34;5013342;28;20049;-76
2020/12/05 03:36:48;;;;;;;31.60;19.40;;;;;;;0.49;77.30;94467.84;5013680;28;20440;-75
2020/12/05 03:39:15;;;;;;;35.30;20.38;;;;;;;0.52;77.74;94470.06;5013673;28;20046;-75
2020/12/05 03:41:41;;;;;;;38.70;21.60;;;;;;;0.58;77.91;94463.44;5016333;28;20050;-76
2020/12/05 03:44:08;;;;;;;37.30;22.20;;;;;;;0.64;78.34;94456.84;5023828;28;20060;-76
2020/12/05 03:46:35;;;;;;;36.10;21.80;;;;;;;0.71;78.32;94479.06;5025461;28;20050;-77
2020/12/05 03:49:03;;;;;;;35.70;21.42;;;;;;;0.74;78.30;94498.44;5032212;28;20168;-77
2020/12/05 03:51:29;;;;;;;34.85;21.23;;;;;;;0.78;78.32;94495.34;5018622;28;20076;-76
2020/12/05 03:53:56;;;;;;;35.65;21.80;;;;;;;0.81;78.34;94512.19;5014177;28;20121;-76
2020/12/05 03:56:23;;;;;;;39.20;22.35;;;;;;;0.84;78.51;94523.88;5013851;28;20045;-76
2020/12/05 03:58:51;;;;;;;38.42;21.70;;;;;;;0.86;78.83;94543.25;5013016;28;20057;-76
2020/12/05 04:01:17;;;;;;;38.20;23.73;;;;;;;0.89;78.82;94568.56;5013051;28;20045;-76
2020/12/05 04:03:44;;;;;;;41.47;23.65;;;;;;;0.93;79.12;94574.19;5012829;28;20081;-76
2020/12/05 04:06:12;;;;;;;39.92;23.90;;;;;;;0.92;79.53;94568.25;5013033;28;20061;-77
2020/12/05 04:08:40;;;;;;;40.20;23.60;;;;;;;0.92;79.62;94555.41;5012908;28;20500;-76
2020/12/05 04:11:06;;;;;;;43.45;25.15;;;;;;;0.94;79.99;94560.34;5012892;28;20052;-76
2020/12/05 04:13:34;;;;;;;41.83;24.38;;;;;;;0.97;79.80;94575.44;5013074;28;20503;-76
2020/12/05 04:16:01;;;;;;;43.03;26.63;;;;;;;1.00;79.90;94586.13;5013185;28;20072;-76
2020/12/05 04:18:27;;;;;;;40.88;23.80;;;;;;;1.02;80.13;94594.47;5013053;28;20058;-76
2020/12/05 04:20:54;;;;;;;40.00;23.77;;;;;;;1.04;80.12;94602.00;5012790;28;20050;-77
2020/12/05 04:23:21;;;;;;;36.28;22.92;;;;;;;1.05;80.39;94620.78;5013073;28;20053;-76
2020/12/05 04:25:48;;;;;;;33.78;21.00;;;;;;;1.04;80.59;94627.69;5014608;28;20424;-77
2020/12/05 04:28:14;;;;;;;33.40;20.10;;;;;;;1.06;80.76;94610.34;5031868;28;20042;-76
2020/12/05 04:30:41;;;;;;;31.60;19.98;;;;;;;1.09;80.75;94625.38;5031320;28;20053;-76
2020/12/05 04:33:07;;;;;;;27.08;18.20;;;;;;;1.12;80.76;94632.75;5024748;28;20060;-77
2020/12/05 04:35:34;;;;;;;25.63;16.95;;;;;;;1.16;80.86;94639.16;5016034;28;20057;-76
2020/12/05 04:38:00;;;;;;;28.30;18.80;;;;;;;1.21;80.74;94643.78;5014897;28;20571;-77
2020/12/05 04:40:28;;;;;;;27.75;18.00;;;;;;;1.25;80.82;94655.31;5013413;28;20046;-77
2020/12/05 04:42:55;;;;;;;28.17;19.00;;;;;;;1.28;80.67;94654.94;5013798;28;20054;-76
2020/12/05 04:45:23;;;;;;;25.60;17.75;;;;;;;1.31;80.58;94657.19;5013145;28;20085;-77
2020/12/05 04:47:51;;;;;;;25.45;16.67;;;;;;;1.35;80.95;94655.06;5012912;28;20501;-76
2020/12/05 04:50:20;;;;;;;18.60;13.10;;;;;;;1.38;80.84;94659.88;5012922;28;20054;-77
2020/12/05 04:52:48;;;;;;;19.92;12.82;;;;;;;1.40;81.13;94668.19;5012353;28;20045;-76
2020/12/05 04:55:16;;;;;;;18.10;13.25;;;;;;;1.44;80.85;94661.72;5016776;28;20045;-77
2020/12/05 04:57:49;;;;;;;18.30;13.63;;;;;;;1.46;81.15;94628.97;5035592;28;20052;-78
2020/12/05 05:00:16;;;;;;;16.98;13.05;;;;;;;1.50;80.72;94629.41;5035016;28;20052;-78
2020/12/05 05:02:44;;;;;;;17.83;12.82;;;;;;;1.55;81.06;94645.09;5021443;28;20042;-76
2020/12/05 05:05:13;;;;;;;16.50;11.88;;;;;;;1.60;81.37;94602.50;5013265;28;20057;-76
2020/12/05 05:07:49;;;;;;;16.00;11.93;;;;;;;1.65;80.77;94646.47;5012430;28;20046;-77
2020/12/05 05:10:19;;;;;;;18.25;11.57;;;;;;;1.64;80.28;94675.72;5025540;28;20057;-77
2020/12/05 05:12:47;;;;;;;14.90;11.02;;;;;;;1.62;80.24;94695.66;5038476;28;20077;-77
2020/12/05 05:15:27;;;;;;;15.98;10.55;;;;;;;1.62;80.50;94705.94;5023515;28;20058;-76
2020/12/05 05:17:55;;;;;;;12.50;10.15;;;;;;;1.61;80.32;94714.59;5016704;28;20050;-77
2020/12/05 05:20:22;;;;;;;14.32;10.63;;;;;;;1.60;80.52;94715.56;5015995;28;20049;-76
2020/12/05 05:22:50;;;;;;;15.77;10.48;;;;;;;1.61;80.31;94724.88;5016463;28;20046;-77
2020/12/05 05:25:17;;;;;;;11.90;10.10;;;;;;;1.63;80.18;94735.78;5016429;28;20053;-76
2020/12/05 05:27:58;;;;;;;11.88;9.45;;;;;;;1.65;80.89;94728.69;5016229;28;20056;-78
2020/12/05 05:30:25;;;;;;;11.63;9.20;;;;;;;1.69;80.25;94739.44;5015562;28;20526;-76
2020/12/05 05:33:04;;;;;;;12.52;9.77;;;;;;;1.72;80.72;94725.44;5015961;28;20489;-76
2020/12/05 05:35:36;;;;;;;12.73;9.65;;;;;;;1.73;80.30;94720.13;5016023;28;20080;-77
2020/12/05 05:38:03;;;;;;;12.85;9.10;;;;;;;1.76;80.28;94719.00;5016024;28;20049;-76
2020/12/05 05:40:29;;;;;;;10.25;8.40;;;;;;;1.74;80.19;94720.94;5015710;28;20523;-77
2020/12/05 05:42:56;;;;;;;9.73;7.97;;;;;;;1.72;80.10;94740.88;5015830;28;20046;-77
2020/12/05 05:45:25;;;;;;;11.02;8.23;;;;;;;1.72;80.60;94759.66;5015843;28;20050;-77
2020/12/05 05:47:52;;;;;;;9.45;7.50;;;;;;;1.76;80.49;94762.69;5015625;28;20050;-76
2020/12/05 05:50:23;;;;;;;10.02;8.18;;;;;;;1.78;80.08;94751.25;5015646;28;20053;-76
2020/12/05 05:52:54;;;;;;;9.27;7.22;;;;;;;1.81;80.62;94750.09;5015371;28;20547;-77
2020/12/05 05:55:21;;;;;;;10.45;7.90;;;;;;;1.81;80.13;94753.47;5015688;28;20065;-77
2020/12/05 05:57:48;;;;;;;9.75;8.13;;;;;;;1.81;80.18;94768.09;5015520;28;20045;-76
2020/12/05 06:00:15;;;;;;;12.70;9.32;;;;;;;1.80;80.31;94776.81;5014005;28;20057;-77
2020/12/05 06:02:54;;;;;;;10.68;8.40;;;;;;;1.80;80.88;94785.31;5015467;28;20049;-76
2020/12/05 06:05:26;;;;;;;10.93;8.82;;;;;;;1.81;80.42;94788.66;5015275;28;20050;-77
2020/12/05 06:07:55;;;;;;;10.60;8.30;;;;;;;1.79;80.41;94796.56;5015256;28;20050;-76
2020/12/05 06:10:23;;;;;;;11.00;8.35;;;;;;;1.79;80.25;94788.88;5014928;28;20053;-77
2020/12/05 06:12:52;;;;;;;10.40;8.45;;;;;;;1.80;80.12;94784.50;5014876;28;20519;-76
2020/12/05 06:15:20;;;;;;;9.55;7.75;;;;;;;1.80;80.29;94774.22;5015340;28;20061;-78
2020/12/05 06:17:48;;;;;;;11.25;8.50;;;;;;;1.81;80.33;94763.75;5015202;28;20417;-76
2020/12/05 06:20:16;;;;;;;10.05;7.93;;;;;;;1.83;80.64;94766.16;5015323;28;20604;-76
2020/12/05 06:22:48;;;;;;;9.73;8.27;;;;;;;1.84;80.72;94768.56;5014582;28;20041;-76
2020/12/05 06:25:17;;;;;;;9.50;8.00;;;;;;;1.87;80.14;94752.00;5015102;28;20056;-77
2020/12/05 06:27:56;;;;;;;10.02;7.93;;;;;;;1.88;80.69;94743.31;5014459;28;20535;-77
2020/12/05 06:30:22;;;;;;;10.57;7.63;;;;;;;1.88;80.43;94773.34;5014549;28;20053;-76
2020/12/05 06:32:50;;;;;;;9.25;7.80;;;;;;;1.87;80.23;94787.19;5014573;28;20413;-77
2020/12/05 06:35:34;;;;;;;9.98;8.05;;;;;;;1.85;80.63;94816.44;5014621;28;20049;-77
2020/12/05 06:38:02;;;;;;;10.18;8.00;;;;;;;1.87;80.64;94813.69;5014594;28;20057;-77
2020/12/05 06:40:28;;;;;;;8.98;8.07;;;;;;;1.88;80.38;94835.88;5014321;28;20448;-76
2020/12/05 06:42:56;;;;;;;9.30;8.25;;;;;;;1.89;80.02;94840.03;5014603;28;20053;-77
2020/12/05 06:45:39;;;;;;;11.95;8.93;;;;;;;1.92;80.76;94838.91;5014594;28;20076;-77
2020/12/05 06:48:24;;;;;;;;;;;;;;;1.96;80.65;94833.22;5014899;28;20061;-77
2020/12/05 06:50:51;;;;;;;11.10;8.90;;;;;;;1.96;80.03;94840.94;5013977;28;20338;-76
2020/12/05 06:53:29;;;;;;;9.18;7.57;;;;;;;1.94;79.95;94850.59;5014532;28;20050;-77
2020/12/05 06:55:55;;;;;;;11.10;9.27;;;;;;;1.92;80.26;94849.97;5014203;28;20496;-77
2020/12/05 06:58:26;;;;;;;12.75;9.73;;;;;;;1.91;80.44;94845.81;5014383;28;20054;-76
2020/12/05 07:00:54;;;;;;;10.32;8.10;;;;;;;1.91;80.36;94868.94;5013646;28;20409;-77
2020/12/05 07:03:25;;;;;;;9.23;8.18;;;;;;;1.93;80.64;94892.72;5014215;28;20053;-79
2020/12/05 07:05:53;;;;;;;10.10;7.97;;;;;;;1.96;80.72;94901.88;5014281;28;20049;-75
2020/12/05 07:08:32;;;;;;;11.90;8.15;;;;;;;1.98;80.66;94897.34;5014127;28;20050;-76
2020/12/05 07:11:04;;;;;;;11.00;8.90;;;;;;;2.00;80.55;94900.56;5013830;28;20424;-76
2020/12/05 07:13:39;;;;;;;10.80;8.15;;;;;;;2.00;80.79;94909.06;5013885;28;20045;-75
2020/12/05 07:16:17;;;;;;;9.90;7.65;;;;;;;2.00;80.56;94909.06;5014129;28;20062;-76
2020/12/05 07:18:45;;;;;;;10.13;7.47;;;;;;;2.00;80.60;94910.84;5011554;28;20054;-75
2020/12/05 07:21:14;;;;;;;9.43;7.30;;;;;;;1.98;80.23;94908.44;5003783;28;20050;-76
2020/12/05 07:23:41;;;;;;;9.85;7.78;;;;;;;1.97;80.45;94899.13;5005162;28;20739;-75
2020/12/05 07:26:08;;;;;;;8.30;6.90;;;;;;;1.96;80.61;94910.38;4994211;28;20057;-75
2020/12/05 07:28:35;;;;;;;8.00;6.60;;;;;;;1.97;80.71;94904.28;5001314;28;20046;-76
2020/12/05 07:31:03;;;;;;;10.88;8.10;;;;;;;2.00;80.55;94916.78;5012206;28;20049;-76
2020/12/05 07:33:30;;;;;;;13.15;8.60;;;;;;;2.01;80.73;94920.97;5000013;28;20058;-75
2020/12/05 07:36:05;;;;;;;10.75;8.25;;;;;;;2.06;81.19;94928.19;5005934;28;20053;-76
2020/12/05 07:38:35;;;;;;;10.52;7.78;;;;;;;2.08;80.86;94925.41;5013634;28;20539;-76
2020/12/05 07:41:09;;;;;;;10.35;7.97;;;;;;;2.10;80.72;94942.31;5013262;28;20045;-76
2020/12/05 07:43:36;;;;;;;12.25;8.80;;;;;;;2.11;80.49;94937.94;5014788;28;20468;-75
2020/12/05 07:46:04;;;;;;;9.57;7.97;;;;;;;2.13;80.12;94946.31;5004419;28;20050;-76
2020/12/05 07:48:31;;;;;;;9.90;8.20;;;;;;;2.13;80.06;94930.88;4993639;28;20063;-76
2020/12/05 07:50:57;;;;;;;8.73;7.32;;;;;;;2.15;79.99;94942.59;4992989;28;20057;-76
2020/12/05 07:53:33;;;;;;;11.27;7.70;;;;;;;2.15;79.95;94955.44;5000850;28;20484;-76
2020/12/05 07:56:12;;;;;;;8.93;7.82;;;;;;;2.18;79.92;94959.44;5013177;28;20077;-76
2020/12/05 07:58:49;;;;;;;9.73;8.02;;;;;;;2.19;79.79;94977.28;5012960;28;20054;-76
2020/12/05 08:01:37;;;;;;;10.40;8.48;;;;;;;2.21;80.13;94990.00;5018645;28;20053;-75
2020/12/05 08:04:34;;;;;;;12.85;8.93;;;;;;;2.22;80.24;94999.31;4993691;28;20050;-77
2020/12/05 08:07:02;;;;;;;10.30;8.10;;;;;;;2.21;80.35;95005.44;4987658;28;20062;-76
2020/12/05 08:09:33;;;;;;;11.82;8.82;;;;;;;2.22;80.40;95014.75;4993058;28;20053;-76
2020/12/05 08:12:01;;;;;;;9.00;7.50;;;;;;;2.22;80.36;95005.25;4993497;28;20061;-76
2020/12/05 08:14:31;;;;;;;11.77;8.68;;;;;;;2.23;80.30;95004.28;4993507;28;20049;-75
2020/12/05 08:17:01;;;;;;;11.63;9.15;;;;;;;2.25;80.48;95017.78;4993244;28;20398;-76
2020/12/05 08:19:27;;;;;;;11.23;8.23;;;;;;;2.27;80.18;95017.59;4992844;28;20129;-76
2020/12/05 08:21:54;;;;;;;11.05;8.93;;;;;;;2.29;80.58;95010.50;4993199;28;20050;-76
2020/12/05 08:24:21;;;;;;;11.48;8.57;;;;;;;2.31;80.09;95026.59;4993449;28;20065;-76
2020/12/05 08:26:50;;;;;;;11.82;8.85;;;;;;;2.34;80.29;95026.25;4994441;28;20050;-77
2020/12/05 08:29:18;;;;;;;13.68;9.10;;;;;;;2.35;79.97;95017.56;5031679;28;20084;-76
2020/12/05 08:31:45;;;;;;;13.57;8.88;;;;;;;2.36;79.90;95014.03;5033937;28;20054;-77
2020/12/05 08:34:12;;;;;;;10.30;8.20;;;;;;;2.39;80.21;95015.47;5028978;28;20046;-76
2020/12/05 08:36:43;;;;;;;11.25;8.48;;;;;;;2.40;80.25;95010.13;5010579;28;20061;-78
2020/12/05 08:39:11;;;;;;;11.90;9.40;;;;;;;2.41;79.85;95016.88;4993133;28;20424;-75
2020/12/05 08:41:45;;;;;;;28.17;11.93;;;;;;;2.40;80.29;95025.56;4993128;28;20052;-79
2020/12/05 08:44:14;;;;;;;32.25;12.77;;;;;;;2.44;80.33;95020.88;4995064;28;20500;-76
2020/12/05 08:46:40;;;;;;;35.03;14.35;;;;;;;2.45;80.22;95015.56;5000515;28;20058;-76
2020/12/05 08:49:14;;;;;;;29.35;11.88;;;;;;;2.48;79.78;95022.16;5006342;28;20055;-76
2020/12/05 08:51:45;;;;;;;24.05;10.45;;;;;;;2.50;80.32;95014.28;5012242;28;20068;-76
2020/12/05 08:54:12;;;;;;;17.52;10.32;;;;;;;2.53;80.06;95008.78;5009691;28;20048;-76
2020/12/05 08:56:39;;;;;;;17.13;9.80;;;;;;;2.53;80.09;95001.03;5011973;28;20050;-76
2020/12/05 08:59:06;;;;;;;14.82;9.00;;;;;;;2.55;80.16;95011.97;5001095;28;20050;-76
2020/12/05 09:01:38;;;;;;;13.07;9.50;;;;;;;2.56;80.03;95004.09;4996874;28;20058;-75
2020/12/05 09:04:04;;;;;;;11.15;7.88;;;;;;;2.58;79.82;95012.44;4993234;28;20050;-76
2020/12/05 09:06:31;;;;;;;11.60;8.75;;;;;;;2.58;79.54;95035.63;5011938;28;20057;-77
2020/12/05 09:08:57;;;;;;;11.38;8.60;;;;;;;2.57;79.65;95038.34;5011623;28;20049;-77
2020/12/05 09:13:53;;;;;;;10.73;8.05;;;;;;;2.56;79.92;95052.16;5030460;28;20042;-78
2020/12/05 09:16:20;;;;;;;11.32;8.68;;;;;;;2.55;79.85;95042.88;5032443;28;20049;-77
2020/12/05 09:18:50;;;;;;;9.40;7.80;;;;;;;2.54;79.57;95041.28;5032501;28;20397;-76
2020/12/05 09:21:18;;;;;;;11.90;8.52;;;;;;;2.53;79.97;95053.31;5032091;28;20049;-76
2020/12/05 09:23:45;;;;;;;10.73;7.97;;;;;;;2.52;79.85;95069.75;5032551;28;20484;-77
2020/12/05 09:26:12;;;;;;;10.90;8.55;;;;;;;2.51;80.00;95062.97;5032477;28;20045;-77
2020/12/05 09:28:39;;;;;;;11.25;8.65;;;;;;;2.51;79.65;95062.97;5031710;28;20053;-77
2020/12/05 09:31:07;;;;;;;9.65;7.97;;;;;;;2.50;79.82;95070.91;5031492;28;20503;-76
2020/12/05 09:33:35;;;;;;;11.07;8.25;;;;;;;2.50;79.75;95051.09;5031868;28;20057;-77
2020/12/05 09:36:03;;;;;;;10.93;7.65;;;;;;;2.51;79.72;95054.47;5031672;28;20041;-77
2020/12/05 09:38:30;;;;;;;10.25;8.35;;;;;;;2.51;79.74;95049.31;5032109;28;20049;-77
2020/12/05 09:40:57;;;;;;;11.23;8.40;;;;;;;2.51;79.79;95062.97;5036585;28;20050;-78
2020/12/05 09:43:24;;;;;;;10.57;7.65;;;;;;;2.52;79.29;95079.25;5035373;28;20041;-78
2020/12/05 09:45:51;;;;;;;9.70;7.55;;;;;;;2.52;79.67;95068.94;5033386;28;20109;-78
2020/12/05 09:48:18;;;;;;;9.75;7.80;;;;;;;2.53;79.82;95073.91;5033710;28;20052;-78
2020/12/05 09:50:54;;;;;;;11.93;8.82;;;;;;;2.54;79.71;95069.59;5033122;28;20127;-80
2020/12/05 09:53:22;;;;;;;16.40;10.50;;;;;;;2.56;79.59;95077.91;5033174;28;20056;-78
2020/12/05 09:55:49;;;;;;;15.55;10.45;;;;;;;2.59;80.00;95080.97;5033096;28;20059;-76
2020/12/05 09:58:15;;;;;;;14.80;9.82;;;;;;;2.61;79.91;95078.22;5036062;28;20488;-78
2020/12/05 10:00:42;;;;;;;10.85;7.57;;;;;;;2.61;79.37;95083.38;5036635;28;20056;-78
2020/12/05 10:03:08;;;;;;;15.95;8.18;;;;;;;2.59;79.40;95075.81;5041522;28;20101;-80
2020/12/05 10:05:36;;;;;;;13.52;8.40;;;;;;;2.58;79.40;95070.81;5037594;28;20053;-80
2020/12/05 10:08:04;;;;;;;15.50;9.05;;;;;;;2.57;79.43;95069.25;5038059;28;20045;-81
2020/12/05 10:10:32;;;;;;;13.25;8.85;;;;;;;2.59;79.59;95067.28;5039872;28;20076;-80
2020/12/05 10:12:59;;;;;;;15.85;8.75;;;;;;;2.59;79.17;95064.72;5037036;28;20057;-81
2020/12/05 10:15:25;;;;;;;11.15;8.52;;;;;;;2.58;79.43;95060.53;5037148;28;20050;-80
2020/12/05 10:17:52;;;;;;;13.52;9.63;;;;;;;2.58;79.73;95066.50;5036678;28;20083;-80
2020/12/05 10:20:19;;;;;;;15.13;9.43;;;;;;;2.61;79.50;95062.78;5036399;28;20056;-80
2020/12/05 10:22:46;;;;;;;12.90;8.52;;;;;;;2.61;79.62;95073.06;5036268;28;20053;-81
2020/12/05 10:25:12;;;;;;;11.82;8.63;;;;;;;2.58;79.39;95076.81;5036837;28;20042;-80
2020/12/05 10:27:42;;;;;;;16.67;10.13;;;;;;;2.59;79.49;95087.88;5036690;28;20053;-81
2020/12/05 10:30:09;;;;;;;14.45;9.88;;;;;;;2.57;79.44;95082.09;5038580;28;20046;-81
2020/12/05 10:32:37;;;;;;;16.42;10.45;;;;;;;2.57;79.25;95076.97;5039783;28;20131;-81
2020/12/05 10:35:04;;;;;;;13.90;9.80;;;;;;;2.58;79.35;95071.66;5041605;28;20041;-80
2020/12/05 10:37:30;;;;;;;14.05;9.68;;;;;;;2.60;79.62;95081.75;5038508;28;20057;-80
2020/12/05 10:39:57;;;;;;;14.50;9.10;;;;;;;2.61;79.59;95085.94;5036492;28;20049;-80
2020/12/05 10:42:23;;;;;;;14.43;9.50;;;;;;;2.61;79.17;95104.75;5035122;28;20052;-78
2020/12/05 10:44:51;;;;;;;13.15;9.02;;;;;;;2.60;79.58;95102.34;5035017;28;20462;-81
2020/12/05 10:47:18;;;;;;;14.57;9.20;;;;;;;2.62;79.87;95108.13;5035320;28;20049;-80
2020/12/05 10:49:44;;;;;;;17.17;10.18;;;;;;;2.60;79.57;95104.94;5035679;28;20400;-80
2020/12/05 10:52:11;;;;;;;16.98;10.50;;;;;;;2.60;79.61;95117.78;5048691;28;20053;-80
2020/12/05 10:54:38;;;;;;;19.00;12.13;;;;;;;2.60;79.66;95125.53;5041872;28;20064;-80
2020/12/05 10:57:04;;;;;;;22.00;14.35;;;;;;;2.60;79.88;95128.91;5039115;28;20065;-80
2020/12/05 10:59:31;;;;;;;19.80;12.65;;;;;;;2.61;79.62;95132.28;5042052;28;20423;-79
2020/12/05 11:01:58;;;;;;;20.83;12.35;;;;;;;2.62;79.61;95131.31;5041740;28;20058;-80
2020/12/05 11:04:25;;;;;;;15.88;10.68;;;;;;;2.62;79.27;95128.72;5038883;28;20414;-79
2020/12/05 11:06:52;;;;;;;19.17;11.95;;;;;;;2.61;79.10;95122.00;5034467;28;20132;-80
2020/12/05 11:09:18;;;;;;;16.38;10.07;;;;;;;2.59;79.35;95123.94;5032414;28;20144;-79
2020/12/05 11:11:45;;;;;;;16.63;9.93;;;;;;;2.58;79.59;95124.88;5037994;28;20068;-81
2020/12/05 11:14:11;;;;;;;13.52;9.10;;;;;;;2.57;79.46;95124.09;5035997;28;20045;-80
2020/12/05 11:16:38;;;;;;;16.70;10.60;;;;;;;2.56;79.59;95113.94;5036616;28;20049;-79
2020/12/05 11:19:05;;;;;;;15.68;10.60;;;;;;;2.56;79.17;95101.06;5035247;28;20060;-80
2020/12/05 11:21:32;;;;;;;16.50;11.20;;;;;;;2.54;79.26;95092.75;5035205;28;20057;-81
2020/12/05 11:24:00;;;;;;;18.73;11.73;;;;;;;2.55;79.42;95090.00;5035028;28;20644;-80
2020/12/05 11:26:26;;;;;;;18.02;11.57;;;;;;;2.54;79.45;95098.69;5036057;28;20419;-80
2020/12/05 11:28:54;;;;;;;17.13;11.40;;;;;;;2.54;79.46;95093.53;5034674;28;20104;-80
2020/12/05 11:31:21;;;;;;;18.58;11.90;;;;;;;2.55;79.51;95099.50;5033970;28;20496;-79
2020/12/05 11:33:47;;;;;;;15.05;10.65;;;;;;;2.55;79.42;95090.00;5034943;28;20050;-78
2020/12/05 11:36:14;;;;;;;15.07;9.70;;;;;;;2.55;79.56;95091.78;5034578;28;20045;-81
2020/12/05 11:38:41;;;;;;;17.70;11.40;;;;;;;2.56;79.35;95101.06;5035988;28;20049;-79